Portada
METAR-TAF:

METAR-TAF

Aeroports :

Minot, Dakota del Nord, Estats Units d'Amèrica

latitud: 48-25N, longitud: 101-21W, altitud: 508 m

Observació

L'informe es va fer fa 19 minuts, a les 22:56 UTC
Vent calma
Temperatura 7°C
Humitat 49%
Pressió 1006 hPa
Visibilitat: 16.1 km
Cel clar

METAR: KMIB 222256Z AUTO 00000KT 10SM CLR 07/M03 A2970 RMK AO2 SLP077 T00661026 $

Hora: 17:15 (23:15 UTC)

Pronòstic

L'informe es va fer fa 30 hores i 15 minuts, a les 17:00 UTC
Pronòstic vàlid del 21 a les 17 UTC al 22 a les 23 UTC
Vent 12 kt del Oest
Visibilitat 10 km o més
Cel clar
Evolucionant progressivament
l' 22 a les 19 UTC al 22 a les 20 UTC
Vent 12 kt del Nord-Oest amb ràfegues de 18 kt
Visibilitat: 2409 m
Escasses núvols a una alçada de 5000 ft
Núvols disperses a una alçada de 12000 ft

TAF: KMIB 211700Z 2117/2223 27012KT 9999 SKC QNH2998INS BECMG 2219/2220 32012G18KT 9999 FEW050 SCT120 QNH2986INS TX06/2121Z TNM02/2210Z LAST NO AMDS AFT 2200 NEXT 2409

Observacions i pronòstics meteorològics de més de 4000 aeroports (METAR i TAF).

Les estacions disponibles són els punts grocs i vermells al mapa.

Posi el ratolí al punt desitjat per veure el nom de l'estació.

Feu clic per veure les observacions i els pronòstics meteorològics.

Per canviar el mapa: feu clic els botons verds amb una creu de color negre per apropar; al botó verd amb un guió per allunyar la imatge; o en les fletxes verdes per a mapes adjacents.


METAR-TAF: